createdAt,value
2022-12-15T12:28:59.901Z,144.38
2022-12-15T12:31:56.412Z,131.80
2022-12-15T12:34:28.589Z,127.85
2022-12-15T12:37:25.336Z,133.10
2022-12-15T12:39:56.567Z,152.52
2022-12-15T12:43:13.592Z,141.48
2022-12-15T12:45:54.770Z,136.45
2022-12-15T12:48:34.453Z,144.03
2022-12-15T12:51:31.975Z,151.82
2022-12-15T12:54:00.891Z,164.88
2022-12-15T12:56:44.105Z,159.35
2022-12-15T12:59:33.306Z,143.00
2022-12-15T13:02:22.323Z,152.90
2022-12-15T13:05:19.221Z,155.52
2022-12-15T13:08:16.830Z,164.55
2022-12-15T13:10:47.503Z,126.43
2022-12-15T13:13:33.922Z,115.47
2022-12-15T13:16:25.205Z,123.07
2022-12-15T13:19:04.735Z,122.60
2022-12-15T13:21:48.571Z,112.43
2022-12-15T13:24:33.192Z,106.22
2022-12-15T13:27:13.636Z,107.47
2022-12-15T13:29:55.898Z,123.15
2022-12-15T13:32:39.021Z,129.23
2022-12-15T13:35:13.459Z,108.85
2022-12-15T13:37:50.928Z,114.90
2022-12-15T13:40:48.004Z,115.85
2022-12-15T13:43:27.995Z,102.60
2022-12-15T13:45:59.224Z,146.75
2022-12-15T13:48:32.003Z,116.35
2022-12-15T13:51:05.037Z,112.93
2022-12-15T13:57:03.563Z,94.70
2022-12-15T13:59:41.832Z,98.57
2022-12-15T14:02:27.470Z,98.70
2022-12-15T14:05:23.179Z,92.53
2022-12-15T14:08:00.970Z,107.15
2022-12-15T14:10:41.760Z,90.97
2022-12-15T14:13:28.764Z,93.05
2022-12-15T14:16:04.527Z,90.45
2022-12-15T14:18:37.861Z,106.88
2022-12-15T14:21:08.402Z,106.70
2022-12-15T14:24:11.347Z,96.32
2022-12-15T14:26:35.170Z,101.95
2022-12-15T14:29:07.629Z,109.35
2022-12-15T14:31:38.093Z,97.80
2022-12-15T14:34:15.801Z,116.43
2022-12-15T14:36:45.515Z,103.47
2022-12-15T14:39:30.075Z,93.22
2022-12-15T14:41:59.090Z,98.57
2022-12-15T14:44:39.117Z,100.50
2022-12-15T14:47:29.759Z,100.72
2022-12-15T14:49:58.918Z,103.88
2022-12-15T14:52:39.223Z,96.60
2022-12-15T14:55:35.455Z,104.25
2022-12-15T14:58:36.148Z,117.63
2022-12-15T15:01:20.905Z,83.72
2022-12-15T15:03:58.251Z,83.32
2022-12-15T15:06:35.721Z,87.60
2022-12-15T15:09:15.585Z,107.95
2022-12-15T15:11:44.153Z,95.97
2022-12-15T15:14:29.029Z,95.45
2022-12-15T15:17:05.034Z,93.47
2022-12-15T15:19:39.328Z,90.03
2022-12-15T15:22:41.085Z,83.90
2022-12-15T15:25:40.295Z,87.82
2022-12-15T15:28:21.294Z,76.20
2022-12-15T15:30:56.496Z,93.13
2022-12-15T15:33:26.385Z,99.88
2022-12-15T15:35:57.687Z,102.72
2022-12-15T15:38:39.440Z,110.20
2022-12-15T15:41:16.797Z,94.70
2022-12-15T15:43:45.315Z,112.95
2022-12-15T15:46:22.964Z,100.10
2022-12-15T15:49:08.420Z,110.30
2022-12-15T15:51:37.897Z,99.70
2022-12-15T15:54:09.793Z,104.20
2022-12-15T15:56:39.240Z,112.00
2022-12-15T15:59:12.888Z,100.20
2022-12-15T16:01:41.703Z,104.78
2022-12-15T16:04:09.940Z,90.43
2022-12-15T16:06:43.507Z,98.57
2022-12-15T16:09:16.008Z,86.00
2022-12-15T16:11:45.699Z,93.60
2022-12-15T16:14:14.884Z,92.57
2022-12-15T16:16:43.907Z,93.32
2022-12-15T16:19:14.692Z,98.40
2022-12-15T16:21:43.854Z,106.30
2022-12-15T16:24:16.622Z,93.60
2022-12-15T16:26:48.959Z,112.05
2022-12-15T16:29:18.891Z,96.35
2022-12-15T16:31:47.528Z,95.32
2022-12-15T16:34:21.657Z,102.97
2022-12-15T16:36:50.520Z,96.75
2022-12-15T16:39:39.706Z,99.72
2022-12-15T16:42:12.739Z,82.53
2022-12-15T16:44:40.818Z,106.18
2022-12-15T16:47:09.991Z,99.20
2022-12-15T16:49:40.363Z,95.55
2022-12-15T16:52:19.327Z,71.95
2022-12-15T16:54:49.756Z,93.47
2022-12-15T16:57:18.635Z,97.43
2022-12-15T16:59:47.431Z,109.97
2022-12-15T17:02:28.395Z,91.30
2022-12-15T17:04:56.855Z,96.25
2022-12-15T17:07:27.849Z,91.85
2022-12-15T17:09:56.707Z,84.20
2022-12-15T17:12:25.146Z,94.95
2022-12-15T17:14:53.363Z,103.30
2022-12-15T17:17:21.808Z,92.90
2022-12-15T17:20:28.532Z,102.43
2022-12-15T17:22:39.013Z,106.68
2022-12-15T17:25:12.767Z,91.68
2022-12-15T17:27:41.202Z,85.50
2022-12-15T17:30:15.215Z,98.93
2022-12-15T17:32:44.280Z,86.38
2022-12-15T17:35:12.841Z,106.07
2022-12-15T17:37:41.878Z,94.88
2022-12-15T17:40:36.469Z,97.97
2022-12-15T17:43:12.411Z,102.65
2022-12-15T17:45:40.613Z,89.97
2022-12-15T17:48:09.212Z,106.13
2022-12-15T17:50:38.034Z,104.50
2022-12-15T17:53:07.197Z,109.13
2022-12-15T17:55:35.679Z,98.32
2022-12-15T17:58:16.983Z,107.45
2022-12-15T18:00:49.197Z,89.10
2022-12-15T18:03:18.130Z,118.07
2022-12-15T18:05:51.328Z,122.80
2022-12-15T18:08:25.033Z,106.18
2022-12-15T18:10:55.216Z,121.78
2022-12-15T18:13:35.540Z,112.25
2022-12-15T18:16:04.107Z,96.15
2022-12-15T18:18:32.661Z,95.60
2022-12-15T18:21:05.807Z,109.95
2022-12-15T18:23:35.536Z,118.03
2022-12-15T18:26:03.864Z,110.38
2022-12-15T18:28:36.208Z,114.35
2022-12-15T18:31:13.321Z,99.25
2022-12-15T18:33:41.932Z,92.35
2022-12-15T18:36:10.424Z,121.57
2022-12-15T18:38:39.175Z,114.57
2022-12-15T18:41:08.993Z,101.53
2022-12-15T18:43:37.420Z,105.15
2022-12-15T18:46:05.615Z,100.78
2022-12-15T18:48:37.714Z,101.20
2022-12-15T18:51:17.639Z,85.35
2022-12-15T18:53:46.324Z,96.45
2022-12-15T18:56:16.244Z,97.93
2022-12-15T18:58:45.582Z,113.20
2022-12-15T19:01:13.793Z,105.07
2022-12-15T19:03:42.298Z,95.43
2022-12-15T19:06:38.278Z,93.13
2022-12-15T19:09:16.008Z,85.28
2022-12-15T19:12:06.158Z,81.78
2022-12-15T19:14:40.724Z,84.38
2022-12-15T19:17:34.186Z,83.55
2022-12-15T19:20:23.018Z,92.05
2022-12-15T19:22:51.447Z,99.70
2022-12-15T19:25:25.761Z,109.45
2022-12-15T19:28:01.593Z,110.53
2022-12-15T19:30:37.006Z,105.03
2022-12-15T19:33:08.804Z,103.00
2022-12-15T19:35:37.900Z,91.60
2022-12-15T19:38:06.409Z,92.10
2022-12-15T19:40:37.691Z,91.07
2022-12-15T19:43:06.473Z,77.32
2022-12-15T19:45:35.055Z,74.50
2022-12-15T19:48:03.510Z,88.63
2022-12-15T19:50:36.285Z,79.40
2022-12-15T19:53:18.253Z,82.78
2022-12-15T19:55:46.713Z,78.05
2022-12-15T19:58:27.065Z,77.50
2022-12-15T20:01:01.968Z,78.85
2022-12-15T20:03:31.337Z,82.78
2022-12-15T20:06:01.527Z,93.57
2022-12-15T20:08:34.624Z,75.50
2022-12-15T20:11:03.766Z,72.38
2022-12-15T20:13:32.374Z,71.00
2022-12-15T20:16:00.998Z,82.72
2022-12-15T20:18:29.373Z,61.53
2022-12-15T20:20:59.312Z,67.45
2022-12-15T20:23:27.965Z,66.03
2022-12-15T20:25:56.860Z,100.47
2022-12-15T20:28:27.237Z,123.65
2022-12-15T20:30:56.953Z,102.83
2022-12-15T20:33:25.215Z,84.80
2022-12-15T20:35:53.875Z,66.53
2022-12-15T20:38:31.587Z,80.30
2022-12-15T20:41:01.858Z,79.90
2022-12-15T20:43:35.057Z,76.97
2022-12-15T20:46:07.458Z,83.32
2022-12-15T20:48:36.898Z,70.30
2022-12-15T20:51:09.508Z,70.00
2022-12-15T20:53:39.176Z,81.63
2022-12-15T20:56:08.299Z,90.82
2022-12-15T20:58:40.050Z,81.22
2022-12-15T21:01:18.104Z,83.18
2022-12-15T21:03:46.946Z,69.20
2022-12-15T21:06:15.516Z,73.13
2022-12-15T21:08:43.656Z,75.85
2022-12-15T21:11:24.629Z,82.50
2022-12-15T21:13:54.545Z,79.05
2022-12-15T21:16:28.010Z,84.88
2022-12-15T21:20:06.285Z,75.63
2022-12-15T21:21:55.158Z,79.97
2022-12-15T21:24:27.944Z,93.43
2022-12-15T21:26:56.787Z,500.95
2022-12-15T21:29:26.534Z,356.05
2022-12-15T21:31:54.995Z,211.65
2022-12-15T21:34:23.196Z,182.75
2022-12-15T21:36:55.321Z,139.98
2022-12-15T21:39:30.143Z,129.95
2022-12-15T21:42:00.888Z,91.38
2022-12-15T21:44:29.284Z,84.40
2022-12-15T21:46:58.370Z,86.35
2022-12-15T21:49:26.521Z,83.35
2022-12-15T21:51:59.070Z,81.38
2022-12-15T21:54:33.188Z,83.45
2022-12-15T21:57:02.885Z,90.40
2022-12-15T21:59:32.596Z,82.82
2022-12-15T22:02:01.897Z,79.32
